Time;durP1;ratioP1;P1;durP2;ratioP2;P2;SDS_P1;SDS_P2;PMS_P1;PMS_P2;Temp;Humidity;BMP_temperature;BMP_pressure;BME280_temperature;BME280_humidity;BME280_pressure;Samples;Min_cycle;Max_cycle;Signal;HPM_P1;HPM_P2
2022/04/06 00:05:36;;;;;;;0.20;0.00;;;11.00;99.90;;;;;;25413188;23;20211;-61
2022/04/06 00:15:39;;;;;;;0.20;0.10;;;11.10;99.90;;;;;;25415153;23;20187;-62
2022/04/06 00:25:45;;;;;;;0.20;0.00;;;10.90;99.90;;;;;;25419663;23;20188;-63
2022/04/06 00:35:50;;;;;;;0.20;0.10;;;10.80;99.90;;;;;;25393371;23;20183;-63
2022/04/06 00:45:56;;;;;;;0.20;0.10;;;10.60;99.90;;;;;;25418370;23;20203;-62
2022/04/06 00:56:00;;;;;;;0.20;0.10;;;10.70;99.90;;;;;;25419259;23;20182;-67
2022/04/06 01:06:05;;;;;;;0.20;0.10;;;10.50;99.90;;;;;;25419575;23;20190;-68
2022/04/06 01:16:09;;;;;;;0.20;0.00;;;10.30;99.90;;;;;;25418830;23;20200;-67
2022/04/06 01:26:15;;;;;;;0.20;0.03;;;10.40;99.90;;;;;;25418014;23;20194;-69
2022/04/06 01:36:18;;;;;;;0.20;0.10;;;10.10;99.90;;;;;;25417662;23;20244;-68
2022/04/06 01:46:23;;;;;;;0.20;0.10;;;10.30;99.90;;;;;;25416134;23;20201;-69
2022/04/06 01:56:27;;;;;;;0.20;0.10;;;10.10;99.90;;;;;;25394340;23;20164;-68
2022/04/06 02:06:32;;;;;;;0.20;0.10;;;10.30;99.90;;;;;;25414945;23;20189;-68
2022/04/06 02:16:37;;;;;;;0.20;0.10;;;10.30;99.90;;;;;;25418703;23;20194;-67
2022/04/06 02:26:42;;;;;;;0.20;0.00;;;10.80;99.90;;;;;;25415311;23;20187;-67
2022/04/06 02:36:46;;;;;;;0.20;0.10;;;10.80;99.90;;;;;;25415874;23;20152;-68
2022/04/06 02:46:51;;;;;;;0.20;0.10;;;10.90;99.90;;;;;;25414428;23;20199;-66
2022/04/06 02:56:55;;;;;;;0.20;0.00;;;11.10;99.90;;;;;;25414761;23;20183;-68
2022/04/06 03:07:00;;;;;;;0.20;0.10;;;11.10;99.90;;;;;;25414184;23;20187;-75
2022/04/06 03:17:04;;;;;;;0.20;0.10;;;11.20;99.90;;;;;;25388939;23;20196;-77
2022/04/06 03:27:09;;;;;;;0.20;0.10;;;11.50;99.90;;;;;;25391421;23;20282;-79
2022/04/06 03:37:13;;;;;;;0.20;0.10;;;11.60;99.90;;;;;;25419173;23;20156;-77
2022/04/06 03:47:18;;;;;;;0.20;0.10;;;11.50;99.90;;;;;;25412637;23;20211;-62
2022/04/06 03:57:22;;;;;;;0.20;0.10;;;11.60;99.90;;;;;;25394200;23;20168;-62
2022/04/06 04:07:29;;;;;;;0.20;0.07;;;11.80;99.90;;;;;;25421762;23;20195;-62
2022/04/06 04:17:33;;;;;;;0.20;0.00;;;11.40;99.90;;;;;;25418957;23;20184;-61
2022/04/06 04:27:39;;;;;;;0.20;0.07;;;11.10;99.90;;;;;;25418070;23;20183;-62
2022/04/06 04:37:43;;;;;;;0.20;0.10;;;10.90;99.90;;;;;;25392108;23;20175;-62
2022/04/06 04:47:48;;;;;;;0.20;0.00;;;10.80;99.90;;;;;;25418493;23;20199;-63
2022/04/06 04:57:52;;;;;;;0.20;0.10;;;10.90;99.90;;;;;;25383641;23;20204;-63
2022/04/06 05:07:58;;;;;;;0.20;0.10;;;10.90;99.90;;;;;;25412591;23;20198;-62
2022/04/06 05:18:02;;;;;;;0.20;0.10;;;10.60;99.90;;;;;;25414545;23;20369;-63
2022/04/06 05:28:09;;;;;;;0.70;0.70;;;10.70;99.90;;;;;;25412469;23;20188;-63
2022/04/06 05:38:13;;;;;;;0.20;0.00;;;10.60;99.90;;;;;;25413886;23;20156;-75
2022/04/06 05:48:18;;;;;;;0.20;0.10;;;10.40;99.90;;;;;;25411191;23;20187;-77
2022/04/06 05:58:22;;;;;;;0.20;0.10;;;10.40;99.90;;;;;;25411623;23;20212;-77
2022/04/06 06:08:27;;;;;;;0.20;0.00;;;10.50;99.90;;;;;;25374761;23;20195;-70
2022/04/06 06:18:30;;;;;;;0.20;0.10;;;10.90;99.90;;;;;;25404847;23;20195;-69
2022/04/06 06:28:35;;;;;;;0.20;0.10;;;11.00;99.90;;;;;;25380035;23;20182;-69
2022/04/06 06:38:39;;;;;;;0.20;0.10;;;10.80;99.90;;;;;;25406735;23;20168;-67
2022/04/06 06:48:45;;;;;;;0.20;0.00;;;11.20;99.90;;;;;;25404932;23;20207;-69
2022/04/06 06:58:48;;;;;;;0.20;0.10;;;11.70;99.90;;;;;;25405950;23;20183;-69
2022/04/06 07:08:53;;;;;;;0.20;0.10;;;12.10;99.90;;;;;;25404121;23;20187;-68
2022/04/06 07:18:57;;;;;;;0.20;0.10;;;12.60;99.90;;;;;;25403702;23;20187;-68
2022/04/06 07:29:02;;;;;;;0.20;0.10;;;12.90;99.90;;;;;;25404129;23;20195;-68
2022/04/06 07:39:07;;;;;;;0.20;0.10;;;13.10;99.90;;;;;;25405699;23;20174;-79
2022/04/06 07:49:12;;;;;;;0.33;0.33;;;13.30;99.90;;;;;;25403261;23;20203;-78
2022/04/06 07:59:16;;;;;;;0.40;0.40;;;13.80;99.90;;;;;;25400299;23;20172;-79
2022/04/06 08:09:21;;;;;;;0.20;0.00;;;13.80;99.90;;;;;;25376855;23;20199;-77
2022/04/06 08:19:26;;;;;;;0.20;0.00;;;14.30;99.90;;;;;;25368870;23;20195;-78
2022/04/06 08:29:31;;;;;;;0.20;0.00;;;14.40;99.90;;;;;;25395583;23;20218;-76
2022/04/06 08:39:35;;;;;;;0.20;0.10;;;14.50;99.90;;;;;;25400049;23;20159;-78
2022/04/06 08:50:03;;;;;;;0.20;0.17;;;14.30;99.90;;;;;;25406822;23;20207;-80
2022/04/06 09:00:10;;;;;;;0.20;0.10;;;14.40;99.90;;;;;;25391492;23;20160;-81
2022/04/06 09:10:15;;;;;;;0.20;0.10;;;14.60;99.90;;;;;;25393723;23;20226;-69
2022/04/06 09:20:25;;;;;;;0.20;0.00;;;14.90;99.90;;;;;;25388695;23;20255;-70
2022/04/06 09:30:34;;;;;;;0.20;0.10;;;15.00;99.90;;;;;;25400271;23;20214;-76
2022/04/06 09:40:41;;;;;;;0.20;0.10;;;14.90;99.90;;;;;;25399564;23;20175;-77
2022/04/06 09:50:56;;;;;;;0.20;0.10;;;14.80;99.90;;;;;;25362333;23;20259;-76
2022/04/06 10:01:00;;;;;;;0.20;0.10;;;15.10;99.90;;;;;;25392977;23;20212;-77
2022/04/06 10:11:06;;;;;;;0.20;0.10;;;15.40;99.90;;;;;;25389630;23;20188;-78
2022/04/06 10:21:14;;;;;;;0.20;0.10;;;16.10;99.90;;;;;;25361577;23;20215;-78
2022/04/06 10:31:22;;;;;;;0.20;0.10;;;16.30;99.90;;;;;;25388685;23;20218;-67
2022/04/06 10:41:26;;;;;;;0.20;0.10;;;16.30;99.90;;;;;;25360187;23;20204;-63
2022/04/06 10:51:56;;;;;;;0.20;0.10;;;16.40;99.90;;;;;;25465709;23;20524;-64
2022/04/06 11:02:18;;;;;;;0.20;0.10;;;17.30;99.90;;;;;;25512283;23;20214;-63
2022/04/06 11:12:25;;;;;;;0.20;0.10;;;17.70;99.90;;;;;;25508431;23;20224;-62
2022/04/06 11:22:29;;;;;;;0.47;0.47;;;17.90;99.90;;;;;;25511093;23;20190;-65
2022/04/06 11:32:34;;;;;;;0.20;0.20;;;18.80;99.90;;;;;;25506902;23;20191;-66
2022/04/06 11:42:39;;;;;;;0.23;0.23;;;19.20;99.90;;;;;;25503048;23;20189;-64
2022/04/06 11:52:46;;;;;;;0.20;0.20;;;19.80;99.90;;;;;;25385717;23;20215;-65
2022/04/06 12:02:51;;;;;;;0.20;0.10;;;19.80;99.90;;;;;;25359793;23;20244;-65
2022/04/06 12:12:57;;;;;;;0.67;0.67;;;20.60;99.90;;;;;;25363409;23;20299;-64
2022/04/06 12:23:03;;;;;;;0.20;0.13;;;20.40;99.90;;;;;;25391195;23;20262;-63
2022/04/06 12:33:08;;;;;;;0.20;0.17;;;20.30;99.90;;;;;;25383339;23;20280;-63
2022/04/06 12:43:24;;;;;;;0.20;0.10;;;19.80;99.90;;;;;;25387611;23;20207;-59
2022/04/06 12:53:31;;;;;;;0.20;0.10;;;18.20;99.90;;;;;;25366508;23;20198;-63
2022/04/06 13:03:34;;;;;;;0.37;0.37;;;19.00;99.90;;;;;;25368262;23;20270;-63
2022/04/06 13:13:39;;;;;;;10.30;2.30;;;21.40;99.90;;;;;;25391914;23;20200;-63
2022/04/06 13:23:43;;;;;;;0.20;0.10;;;22.40;99.90;;;;;;25394215;23;20202;-62
2022/04/06 13:33:48;;;;;;;0.20;0.10;;;22.20;99.90;;;;;;25391393;23;20198;-63
2022/04/06 13:43:52;;;;;;;0.20;0.00;;;22.30;99.90;;;;;;25392034;23;20230;-64
2022/04/06 13:53:58;;;;;;;0.20;0.00;;;22.60;99.90;;;;;;25364288;23;20254;-64
2022/04/06 14:04:01;;;;;;;0.20;0.10;;;22.60;99.90;;;;;;25387964;23;20210;-63
2022/04/06 14:14:07;;;;;;;0.20;0.00;;;22.20;99.90;;;;;;25390764;23;20207;-63
2022/04/06 14:24:10;;;;;;;0.37;0.33;;;20.90;99.90;;;;;;25389497;23;20271;-64
2022/04/06 14:34:16;;;;;;;0.20;0.10;;;20.20;99.90;;;;;;25387425;23;20192;-64
2022/04/06 14:44:20;;;;;;;1.73;1.63;;;19.40;99.90;;;;;;25384842;23;20195;-62
2022/04/06 14:54:25;;;;;;;0.20;0.10;;;19.60;99.90;;;;;;25385301;23;20374;-64
2022/04/06 15:04:29;;;;;;;0.20;0.10;;;19.80;99.90;;;;;;25384084;23;20210;-63
2022/04/06 15:14:35;;;;;;;0.20;0.10;;;19.80;99.90;;;;;;25385736;23;20278;-64
2022/04/06 15:24:39;;;;;;;0.20;0.10;;;20.80;99.90;;;;;;25383958;23;20677;-63
2022/04/06 15:45:07;;;;;;;0.20;0.20;;;22.30;99.90;;;;;;25357701;23;20211;-62
2022/04/06 15:55:16;;;;;;;0.20;0.10;;;21.70;99.90;;;;;;25389768;23;20565;-63
2022/04/06 16:05:19;;;;;;;0.20;0.10;;;20.00;99.90;;;;;;25390793;23;20234;-61
2022/04/06 16:15:25;;;;;;;0.20;0.10;;;19.50;99.90;;;;;;25367380;23;20229;-61
2022/04/06 16:25:29;;;;;;;0.20;0.10;;;18.90;99.90;;;;;;25389248;23;20176;-62
2022/04/06 16:35:34;;;;;;;0.20;0.10;;;17.90;99.90;;;;;;25391616;23;20297;-62
2022/04/06 16:45:38;;;;;;;0.20;0.10;;;17.80;99.90;;;;;;25390034;23;20254;-63
2022/04/06 16:55:43;;;;;;;0.20;0.10;;;17.70;99.90;;;;;;25341231;23;20458;-62
2022/04/06 17:05:48;;;;;;;0.20;0.10;;;17.30;99.90;;;;;;25399139;23;20436;-63
2022/04/06 17:15:53;;;;;;;0.20;0.10;;;17.10;99.90;;;;;;25399828;23;20270;-64
2022/04/06 17:25:57;;;;;;;0.20;0.10;;;17.10;99.90;;;;;;25399874;23;20167;-65
2022/04/06 17:36:02;;;;;;;0.20;0.10;;;17.60;99.90;;;;;;25401996;23;20192;-65
2022/04/06 17:46:06;;;;;;;0.20;0.10;;;17.40;99.90;;;;;;25402452;23;20372;-64
2022/04/06 17:56:11;;;;;;;0.20;0.10;;;15.90;99.90;;;;;;25401506;23;20560;-64
2022/04/06 18:06:15;;;;;;;0.20;0.10;;;15.50;99.90;;;;;;25374133;23;20372;-70
2022/04/06 18:16:21;;;;;;;0.20;0.00;;;15.20;99.90;;;;;;25398739;23;20262;-68
2022/04/06 18:26:26;;;;;;;0.20;0.00;;;14.80;99.90;;;;;;25400415;23;20171;-70
2022/04/06 18:36:31;;;;;;;0.20;0.00;;;14.60;99.90;;;;;;25371805;23;20219;-69
2022/04/06 18:46:35;;;;;;;0.20;0.00;;;14.00;99.90;;;;;;25378732;23;20200;-68
2022/04/06 18:56:41;;;;;;;0.20;0.10;;;14.30;99.90;;;;;;25404114;23;20192;-70
2022/04/06 19:06:44;;;;;;;0.20;0.10;;;14.10;99.90;;;;;;25405324;23;20183;-70
2022/04/06 19:16:50;;;;;;;0.20;0.00;;;13.90;99.90;;;;;;25378322;23;20604;-76
2022/04/06 19:26:54;;;;;;;0.20;0.10;;;14.10;99.90;;;;;;25406234;23;20334;-74
2022/04/06 19:36:59;;;;;;;0.20;0.10;;;13.60;99.90;;;;;;25378010;23;20210;-61
2022/04/06 19:47:04;;;;;;;0.20;0.10;;;13.20;99.90;;;;;;25378535;23;20203;-62
2022/04/06 19:57:09;;;;;;;0.20;0.00;;;12.90;99.90;;;;;;25379040;23;20188;-62
2022/04/06 20:07:13;;;;;;;0.20;0.10;;;12.70;99.90;;;;;;25381042;23;20184;-62
2022/04/06 20:17:18;;;;;;;0.20;0.10;;;12.40;99.90;;;;;;25405135;23;20376;-62
2022/04/06 20:27:23;;;;;;;0.20;0.00;;;12.40;99.90;;;;;;25403692;23;20183;-62
2022/04/06 20:37:28;;;;;;;0.20;0.10;;;12.10;99.90;;;;;;25383006;23;20172;-64
